createdAt,value
2023-02-28T00:01:19.700Z,3.10
2023-02-28T00:03:46.631Z,3.10
2023-02-28T00:06:13.411Z,3.00
2023-02-28T00:08:40.446Z,3.00
2023-02-28T00:11:13.292Z,3.00
2023-02-28T00:13:43.441Z,3.00
2023-02-28T00:16:14.285Z,3.00
2023-02-28T00:18:41.606Z,2.90
2023-02-28T00:21:09.160Z,2.90
2023-02-28T00:23:36.573Z,2.90
2023-02-28T00:26:03.458Z,2.90
2023-02-28T00:28:30.412Z,2.90
2023-02-28T00:30:58.616Z,2.90
2023-02-28T00:33:25.468Z,2.90
2023-02-28T00:35:52.275Z,2.90
2023-02-28T00:38:19.053Z,2.90
2023-02-28T00:40:45.855Z,2.90
2023-02-28T00:43:12.675Z,2.90
2023-02-28T00:45:39.446Z,2.80
2023-02-28T00:48:07.153Z,2.90
2023-02-28T00:50:33.956Z,2.80
2023-02-28T00:53:00.745Z,2.80
2023-02-28T00:55:27.569Z,2.80
2023-02-28T00:57:54.369Z,2.80
2023-02-28T01:00:21.278Z,2.70
2023-02-28T01:02:48.141Z,2.70
2023-02-28T01:05:15.072Z,4.40
2023-02-28T01:07:41.856Z,2.70
2023-02-28T01:10:09.634Z,2.70
2023-02-28T01:12:36.404Z,2.70
2023-02-28T01:15:03.344Z,2.70
2023-02-28T01:17:30.102Z,2.60
2023-02-28T01:19:57.225Z,2.60
2023-02-28T01:22:24.034Z,2.60
2023-02-28T01:24:50.814Z,2.60
2023-02-28T01:27:17.600Z,2.60
2023-02-28T01:29:44.439Z,2.60
2023-02-28T01:32:11.362Z,2.50
2023-02-28T01:34:38.186Z,2.50
2023-02-28T01:37:05.307Z,2.50
2023-02-28T01:39:32.111Z,2.50
2023-02-28T01:41:58.952Z,2.50
2023-02-28T01:45:01.932Z,2.40
2023-02-28T01:47:41.605Z,2.40
2023-02-28T01:50:23.106Z,2.40
2023-02-28T01:52:51.589Z,2.40
2023-02-28T01:55:21.193Z,2.40
2023-02-28T01:57:52.284Z,2.40
2023-02-28T02:00:24.080Z,2.40
2023-02-28T02:02:54.901Z,2.40
2023-02-28T02:05:25.082Z,2.40
2023-02-28T02:07:56.585Z,2.40
2023-02-28T02:10:31.871Z,2.40
2023-02-28T02:13:23.320Z,2.30
2023-02-28T02:16:05.158Z,2.30
2023-02-28T02:19:02.984Z,2.40
2023-02-28T02:21:41.781Z,2.30
2023-02-28T02:24:20.354Z,2.30
2023-02-28T02:27:19.928Z,2.30
2023-02-28T02:30:16.706Z,2.30
2023-02-28T02:33:04.581Z,2.30
2023-02-28T02:36:10.200Z,2.30
2023-02-28T02:38:45.368Z,2.30
2023-02-28T02:41:28.632Z,2.30
2023-02-28T02:44:39.629Z,2.30
2023-02-28T02:47:11.395Z,2.30
2023-02-28T02:49:41.865Z,2.20
2023-02-28T02:52:13.253Z,2.20
2023-02-28T02:54:44.220Z,2.20
2023-02-28T02:57:16.993Z,2.20
2023-02-28T02:59:45.010Z,2.20
2023-02-28T03:02:15.824Z,2.20
2023-02-28T03:04:52.586Z,2.20
2023-02-28T03:07:19.298Z,2.20
2023-02-28T03:09:53.953Z,2.20
2023-02-28T03:12:24.506Z,2.20
2023-02-28T03:15:20.945Z,2.20
2023-02-28T03:17:59.667Z,2.20
2023-02-28T03:20:40.916Z,2.20
2023-02-28T03:23:22.661Z,2.20
2023-02-28T03:26:07.503Z,2.30
2023-02-28T03:29:13.936Z,2.20
2023-02-28T03:31:49.431Z,2.20
2023-02-28T03:34:26.788Z,2.20
2023-02-28T03:37:02.870Z,2.30
2023-02-28T03:39:37.062Z,2.20
2023-02-28T03:42:10.726Z,2.20
2023-02-28T03:44:44.179Z,2.20
2023-02-28T03:47:26.206Z,2.20
2023-02-28T03:50:17.454Z,2.20
2023-02-28T03:53:02.036Z,2.30
2023-02-28T03:56:13.780Z,2.30
2023-02-28T03:59:07.819Z,2.30
2023-02-28T04:01:36.888Z,2.30
2023-02-28T04:04:04.534Z,2.30
2023-02-28T04:06:33.424Z,2.30
2023-02-28T04:09:01.052Z,2.30
2023-02-28T04:11:53.170Z,2.30
2023-02-28T04:14:20.227Z,2.30
2023-02-28T04:16:46.998Z,2.30
2023-02-28T04:19:15.370Z,2.30
2023-02-28T04:21:50.452Z,2.30
2023-02-28T04:24:20.931Z,2.30
2023-02-28T04:26:50.663Z,2.30
2023-02-28T04:29:26.964Z,2.30
2023-02-28T04:31:54.932Z,2.30
2023-02-28T04:34:22.326Z,2.30
2023-02-28T04:37:10.366Z,2.30
2023-02-28T04:39:39.845Z,2.30
2023-02-28T04:42:07.049Z,2.30
2023-02-28T04:44:33.824Z,2.30
2023-02-28T04:47:00.706Z,2.30
2023-02-28T04:49:27.577Z,2.30
2023-02-28T04:51:54.340Z,2.30
2023-02-28T04:54:21.231Z,2.30
2023-02-28T04:56:50.718Z,2.30
2023-02-28T04:59:18.178Z,2.30
2023-02-28T05:01:49.292Z,2.30
2023-02-28T05:04:16.588Z,2.30
2023-02-28T05:06:43.646Z,2.30
2023-02-28T05:09:12.435Z,2.30
2023-02-28T05:11:40.093Z,2.30
2023-02-28T05:14:12.568Z,2.30
2023-02-28T05:16:39.895Z,2.30
2023-02-28T05:19:06.856Z,2.30
2023-02-28T05:21:42.033Z,2.30
2023-02-28T05:24:12.285Z,2.30
2023-02-28T05:26:42.363Z,2.30
2023-02-28T05:29:09.839Z,2.30
2023-02-28T05:31:37.524Z,2.30
2023-02-28T05:34:07.251Z,2.30
2023-02-28T05:36:34.567Z,2.30
2023-02-28T05:39:01.357Z,2.30
2023-02-28T05:41:28.685Z,2.40
2023-02-28T05:43:55.865Z,2.40
2023-02-28T05:46:22.776Z,2.40
2023-02-28T05:48:50.041Z,2.40
2023-02-28T05:51:17.441Z,2.40
2023-02-28T05:53:44.424Z,2.40
2023-02-28T05:56:11.136Z,2.30
2023-02-28T05:58:37.882Z,2.30
2023-02-28T06:01:21.666Z,2.30
2023-02-28T06:03:48.412Z,2.30
2023-02-28T06:06:15.190Z,2.30
2023-02-28T06:08:44.293Z,2.30
2023-02-28T06:11:11.002Z,2.30
2023-02-28T06:13:37.807Z,2.30
2023-02-28T06:16:04.761Z,2.30
2023-02-28T06:18:31.601Z,2.40
2023-02-28T06:20:58.357Z,2.40
2023-02-28T06:23:25.404Z,2.40
2023-02-28T06:25:53.888Z,2.50
2023-02-28T06:28:20.840Z,2.40
2023-02-28T06:30:47.526Z,2.40
2023-02-28T06:33:14.254Z,2.40
2023-02-28T06:35:41.314Z,2.40
2023-02-28T06:38:08.070Z,2.40
2023-02-28T06:40:36.665Z,2.40
2023-02-28T06:43:04.173Z,2.40
2023-02-28T06:45:31.013Z,2.40
2023-02-28T06:47:57.836Z,2.40
2023-02-28T06:50:24.612Z,2.40
2023-02-28T06:52:54.947Z,2.40
2023-02-28T06:55:21.783Z,2.40
2023-02-28T06:57:48.806Z,2.40
2023-02-28T07:00:16.054Z,2.40
2023-02-28T07:02:42.830Z,2.40
2023-02-28T07:05:09.745Z,2.40
2023-02-28T07:07:39.094Z,2.40
2023-02-28T07:10:06.335Z,2.40
2023-02-28T07:12:33.566Z,2.40
2023-02-28T07:15:00.326Z,2.40
2023-02-28T07:17:27.093Z,2.50
2023-02-28T07:19:53.777Z,2.50
2023-02-28T07:22:20.562Z,2.50
2023-02-28T07:24:47.459Z,2.50
2023-02-28T07:27:24.597Z,2.50
2023-02-28T07:29:51.972Z,2.50
2023-02-28T07:32:19.676Z,3.50
2023-02-28T07:34:47.053Z,2.50
2023-02-28T07:37:13.899Z,2.50
2023-02-28T07:39:43.163Z,2.50
2023-02-28T07:42:12.739Z,2.60
2023-02-28T07:44:43.546Z,2.60
2023-02-28T07:47:11.416Z,2.50
2023-02-28T07:49:38.829Z,2.70
2023-02-28T07:52:10.416Z,2.60
2023-02-28T07:54:38.697Z,2.70
2023-02-28T07:57:05.418Z,2.70
2023-02-28T07:59:32.467Z,2.70
2023-02-28T08:02:00.251Z,2.70
2023-02-28T08:04:27.383Z,2.70
2023-02-28T08:06:54.355Z,2.70
2023-02-28T08:09:21.498Z,2.70
2023-02-28T08:11:48.338Z,2.70
2023-02-28T08:14:15.237Z,2.70
2023-02-28T08:16:42.037Z,2.70
2023-02-28T08:19:08.777Z,2.80
2023-02-28T08:21:35.961Z,2.70
2023-02-28T08:24:02.715Z,2.70
2023-02-28T08:26:29.431Z,2.80
2023-02-28T08:28:57.490Z,2.80
2023-02-28T08:31:25.285Z,2.80
2023-02-28T08:33:53.894Z,2.80
2023-02-28T08:36:20.945Z,2.80
2023-02-28T08:38:47.794Z,2.80
2023-02-28T08:41:14.660Z,2.80
2023-02-28T08:43:42.052Z,2.80
2023-02-28T08:46:11.540Z,2.90
2023-02-28T08:48:41.529Z,2.90
2023-02-28T08:51:22.451Z,2.80
2023-02-28T08:53:51.858Z,2.90
2023-02-28T08:56:18.921Z,2.80
2023-02-28T08:58:47.754Z,2.90
2023-02-28T09:01:15.959Z,3.00
2023-02-28T09:03:43.237Z,2.90
2023-02-28T09:06:11.390Z,2.90
2023-02-28T09:08:38.309Z,2.90
2023-02-28T09:11:05.653Z,2.90
2023-02-28T09:13:33.659Z,2.90
2023-02-28T09:16:03.068Z,2.90
2023-02-28T09:18:29.986Z,2.90
2023-02-28T09:20:57.364Z,2.80
2023-02-28T09:23:24.468Z,2.90
2023-02-28T09:25:53.863Z,2.90
2023-02-28T09:28:21.462Z,2.90
2023-02-28T09:30:51.151Z,2.90
2023-02-28T09:33:20.705Z,2.90
2023-02-28T09:35:51.188Z,2.90
2023-02-28T09:38:19.009Z,2.80
2023-02-28T09:40:53.800Z,2.90
2023-02-28T09:43:26.236Z,2.90
2023-02-28T09:46:19.140Z,2.90
2023-02-28T09:48:49.268Z,2.90
2023-02-28T09:51:36.265Z,2.90
2023-02-28T09:54:03.626Z,2.90
2023-02-28T09:56:42.884Z,3.00
2023-02-28T09:59:19.094Z,2.90
2023-02-28T10:02:00.233Z,3.00
2023-02-28T10:04:53.634Z,3.00
2023-02-28T10:07:45.423Z,3.00
2023-02-28T10:10:25.467Z,3.00
2023-02-28T10:12:55.946Z,3.10
2023-02-28T10:15:27.360Z,3.10
2023-02-28T10:18:08.769Z,3.20
2023-02-28T10:20:41.022Z,3.20
2023-02-28T10:23:10.956Z,3.20
2023-02-28T10:25:39.639Z,3.30
2023-02-28T10:28:11.167Z,3.20
2023-02-28T10:30:50.608Z,3.20
2023-02-28T10:33:35.201Z,3.30
2023-02-28T10:36:03.233Z,3.30
2023-02-28T10:38:36.045Z,3.30
2023-02-28T10:41:11.482Z,3.40
2023-02-28T10:43:40.477Z,3.40
2023-02-28T10:46:10.054Z,3.50
2023-02-28T10:48:46.321Z,3.50
2023-02-28T10:51:15.203Z,3.60
2023-02-28T10:54:00.130Z,3.60
2023-02-28T10:56:28.447Z,3.70
2023-02-28T10:58:57.212Z,3.80
2023-02-28T11:01:34.151Z,3.90
2023-02-28T11:04:01.223Z,4.10
2023-02-28T11:06:34.703Z,4.40
2023-02-28T11:09:33.342Z,4.70
2023-02-28T11:12:00.949Z,4.80
2023-02-28T11:14:31.151Z,5.00
2023-02-28T11:17:04.316Z,5.20
2023-02-28T11:19:47.792Z,5.40
2023-02-28T11:22:21.735Z,5.60
2023-02-28T11:24:53.028Z,5.80
2023-02-28T11:27:26.969Z,5.90
2023-02-28T11:29:54.103Z,6.10
2023-02-28T11:32:24.297Z,6.30
2023-02-28T11:35:05.569Z,6.40
2023-02-28T11:37:32.829Z,6.50
2023-02-28T11:39:59.408Z,6.50
2023-02-28T11:42:41.344Z,6.60
2023-02-28T11:45:23.847Z,6.70
2023-02-28T11:48:09.609Z,6.90
2023-02-28T11:50:39.366Z,6.90
2023-02-28T11:53:28.222Z,7.10
2023-02-28T11:55:54.856Z,7.20
2023-02-28T11:58:24.259Z,7.30
2023-02-28T12:01:01.057Z,7.30
2023-02-28T12:03:28.684Z,7.50
2023-02-28T12:06:27.941Z,7.60
2023-02-28T12:09:03.837Z,7.60
2023-02-28T12:11:41.835Z,7.90
2023-02-28T12:14:42.690Z,8.10
2023-02-28T12:17:12.289Z,8.00
2023-02-28T12:19:42.705Z,8.30
2023-02-28T12:22:18.580Z,8.60
2023-02-28T12:24:51.709Z,8.70
2023-02-28T12:27:23.008Z,8.70
2023-02-28T12:30:03.968Z,8.80
2023-02-28T12:32:43.519Z,8.90
2023-02-28T12:35:10.234Z,9.00
2023-02-28T12:38:07.619Z,9.20
2023-02-28T12:41:13.804Z,9.40
2023-02-28T12:43:48.580Z,9.40
2023-02-28T12:46:26.573Z,9.60
2023-02-28T12:48:59.832Z,9.70
2023-02-28T12:51:28.230Z,9.90
2023-02-28T12:54:14.276Z,10.10
2023-02-28T12:57:19.145Z,10.20
2023-02-28T12:59:52.027Z,10.30
2023-02-28T13:02:33.781Z,10.50
2023-02-28T13:05:03.660Z,10.60
2023-02-28T13:07:42.371Z,10.50
2023-02-28T13:10:11.306Z,10.60
2023-02-28T13:12:51.635Z,10.60
2023-02-28T13:15:26.306Z,10.30
2023-02-28T13:17:56.020Z,10.30
2023-02-28T13:20:38.272Z,10.50
2023-02-28T13:23:25.181Z,10.70
2023-02-28T13:25:54.619Z,10.80
2023-02-28T13:28:49.251Z,10.90
2023-02-28T13:31:16.529Z,10.70
2023-02-28T13:33:58.437Z,10.60
2023-02-28T13:36:31.544Z,10.80
2023-02-28T13:39:05.097Z,10.80
2023-02-28T13:41:32.221Z,10.90
2023-02-28T13:44:19.038Z,10.90
2023-02-28T13:46:48.529Z,10.80
2023-02-28T13:49:24.306Z,10.70
2023-02-28T13:52:07.477Z,10.70
2023-02-28T13:54:40.214Z,10.60
2023-02-28T13:57:12.765Z,10.60
2023-02-28T14:00:06.529Z,10.50
2023-02-28T14:03:02.692Z,10.40
2023-02-28T14:05:32.467Z,10.30
2023-02-28T14:08:05.640Z,10.40
2023-02-28T14:10:38.181Z,10.30
2023-02-28T14:13:31.965Z,10.10
2023-02-28T14:16:04.509Z,10.10
2023-02-28T14:18:41.388Z,10.20
2023-02-28T14:21:14.193Z,10.10
2023-02-28T14:23:47.349Z,10.10
2023-02-28T14:26:52.524Z,10.10
2023-02-28T14:29:38.731Z,10.20
2023-02-28T14:32:11.819Z,10.30
2023-02-28T14:37:34.743Z,10.30
2023-02-28T14:40:02.929Z,10.30
2023-02-28T14:42:35.205Z,10.20
2023-02-28T14:45:02.805Z,10.20
2023-02-28T14:47:33.317Z,10.10
2023-02-28T14:50:01.753Z,9.90
2023-02-28T14:52:30.760Z,9.80
2023-02-28T14:55:04.230Z,9.80
2023-02-28T14:57:33.468Z,9.70
2023-02-28T15:00:12.840Z,9.60
2023-02-28T15:02:40.694Z,9.40
2023-02-28T15:05:13.498Z,9.30
2023-02-28T15:07:40.990Z,9.10
2023-02-28T15:10:27.843Z,9.00
2023-02-28T15:12:57.376Z,9.00
2023-02-28T15:16:01.904Z,8.80
2023-02-28T15:18:41.337Z,8.80
2023-02-28T15:21:15.565Z,8.70
2023-02-28T15:23:46.961Z,8.70
2023-02-28T15:26:18.184Z,8.60
2023-02-28T15:28:45.810Z,8.50
2023-02-28T15:31:27.325Z,8.50
2023-02-28T15:33:57.196Z,8.40
2023-02-28T15:36:29.987Z,8.40
2023-02-28T15:39:01.544Z,8.40
2023-02-28T15:41:41.720Z,8.20
2023-02-28T15:44:30.761Z,8.20
2023-02-28T15:47:04.829Z,8.20
2023-02-28T15:49:57.098Z,8.10
2023-02-28T15:52:38.675Z,8.10
2023-02-28T15:55:13.591Z,8.10
2023-02-28T15:57:42.031Z,8.00
2023-02-28T16:00:14.894Z,8.10
2023-02-28T16:02:41.867Z,7.90
2023-02-28T16:05:08.628Z,7.90
2023-02-28T16:07:44.992Z,7.90
2023-02-28T16:10:15.078Z,7.80
2023-02-28T16:12:42.949Z,7.80
2023-02-28T16:15:22.464Z,7.80
2023-02-28T16:17:49.980Z,7.70
2023-02-28T16:20:30.192Z,7.80
2023-02-28T16:22:57.427Z,7.70
2023-02-28T16:25:34.674Z,7.70
2023-02-28T16:28:02.022Z,7.70
2023-02-28T16:30:32.513Z,7.70
2023-02-28T16:32:59.648Z,7.70
2023-02-28T16:35:26.718Z,7.60
2023-02-28T16:37:54.905Z,7.50
2023-02-28T16:40:26.707Z,7.50
2023-02-28T16:42:56.733Z,7.60
2023-02-28T16:45:26.123Z,7.60
2023-02-28T16:47:53.522Z,7.50
2023-02-28T16:50:23.484Z,7.50
2023-02-28T16:52:53.227Z,7.40
2023-02-28T16:55:20.282Z,7.40
2023-02-28T16:57:55.396Z,7.30
2023-02-28T17:00:23.018Z,7.40
2023-02-28T17:02:49.882Z,7.30
2023-02-28T17:05:17.016Z,7.30
2023-02-28T17:07:44.459Z,7.30
2023-02-28T17:10:26.323Z,7.30
2023-02-28T17:12:54.998Z,7.30
2023-02-28T17:15:23.423Z,7.30
2023-02-28T17:17:50.934Z,7.30
2023-02-28T17:20:23.441Z,7.30
2023-02-28T17:22:54.792Z,7.20
2023-02-28T17:25:21.916Z,7.20
2023-02-28T17:27:48.737Z,7.20
2023-02-28T17:30:19.777Z,7.20
2023-02-28T17:32:46.984Z,7.10
2023-02-28T17:35:14.426Z,7.10
2023-02-28T17:37:41.441Z,7.10
2023-02-28T17:40:15.712Z,7.00
2023-02-28T17:42:43.078Z,7.00
2023-02-28T17:45:10.461Z,7.00
2023-02-28T17:47:37.449Z,6.90
2023-02-28T17:50:04.857Z,6.90
2023-02-28T17:52:31.985Z,6.90
2023-02-28T17:54:59.208Z,6.80
2023-02-28T17:57:25.877Z,6.80
2023-02-28T17:59:52.628Z,6.80
2023-02-28T18:02:19.409Z,6.70
2023-02-28T18:04:46.154Z,6.70
2023-02-28T18:07:13.242Z,6.60
2023-02-28T18:09:40.056Z,6.60
2023-02-28T18:12:06.874Z,6.60
2023-02-28T18:14:33.580Z,6.60
2023-02-28T18:17:00.447Z,6.50
2023-02-28T18:19:27.223Z,6.50
2023-02-28T18:21:54.887Z,6.40
2023-02-28T18:24:24.364Z,6.40
2023-02-28T18:26:51.627Z,6.30
2023-02-28T18:29:22.938Z,6.30
2023-02-28T18:31:50.554Z,6.30
2023-02-28T18:34:17.614Z,6.20
2023-02-28T18:36:47.105Z,6.20
2023-02-28T18:39:16.846Z,6.20
2023-02-28T18:41:43.749Z,6.10
2023-02-28T18:44:19.944Z,6.10
2023-02-28T18:46:48.838Z,6.00
2023-02-28T18:49:15.868Z,6.00
2023-02-28T18:51:46.676Z,6.00
2023-02-28T18:54:15.305Z,5.90
2023-02-28T18:56:42.491Z,5.90
2023-02-28T18:59:10.564Z,5.90
2023-02-28T19:01:37.532Z,5.90
2023-02-28T19:04:05.346Z,5.80
2023-02-28T19:06:33.656Z,5.80
2023-02-28T19:09:02.420Z,5.80
2023-02-28T19:11:29.766Z,5.80
2023-02-28T19:13:57.334Z,5.70
2023-02-28T19:16:24.773Z,5.70
2023-02-28T19:18:51.972Z,5.70
2023-02-28T19:21:20.917Z,5.70
2023-02-28T19:23:48.474Z,5.70
2023-02-28T19:26:20.967Z,5.60
2023-02-28T19:28:48.354Z,5.20
2023-02-28T19:31:19.947Z,5.60
2023-02-28T19:33:46.859Z,5.60
2023-02-28T19:36:15.410Z,5.50
2023-02-28T19:38:44.487Z,5.50
2023-02-28T19:41:13.062Z,5.40
2023-02-28T19:43:40.020Z,5.50
2023-02-28T19:46:09.590Z,5.40
2023-02-28T19:48:36.900Z,5.40
2023-02-28T19:51:11.660Z,5.30
2023-02-28T19:53:40.285Z,5.30
2023-02-28T19:56:08.462Z,5.30
2023-02-28T19:58:36.172Z,5.30
2023-02-28T20:01:16.848Z,5.30
2023-02-28T20:03:47.961Z,5.30
2023-02-28T20:06:15.298Z,5.30
2023-02-28T20:08:42.529Z,5.30
2023-02-28T20:11:12.954Z,5.20
2023-02-28T20:13:39.860Z,5.30
2023-02-28T20:16:10.184Z,5.20
2023-02-28T20:18:39.165Z,5.20
2023-02-28T20:21:09.132Z,5.20
2023-02-28T20:23:38.267Z,5.10
2023-02-28T20:26:05.382Z,5.10
2023-02-28T20:28:32.556Z,5.10
2023-02-28T20:31:00.751Z,5.10
2023-02-28T20:33:28.131Z,5.20
2023-02-28T20:36:02.314Z,5.10
2023-02-28T20:38:29.861Z,5.10
2023-02-28T20:41:01.136Z,5.10
2023-02-28T20:43:28.799Z,5.10
2023-02-28T20:46:01.838Z,5.10
2023-02-28T20:48:30.740Z,5.10
2023-02-28T20:50:59.369Z,5.10
2023-02-28T20:53:28.786Z,5.10
2023-02-28T20:56:00.735Z,5.00
2023-02-28T20:58:30.456Z,5.00
2023-02-28T21:01:18.432Z,5.00
2023-02-28T21:03:50.480Z,5.00
2023-02-28T21:06:19.547Z,4.90
2023-02-28T21:08:46.676Z,4.90
2023-02-28T21:11:18.578Z,4.90
2023-02-28T21:13:46.743Z,4.90
2023-02-28T21:16:17.501Z,4.80
2023-02-28T21:18:44.954Z,4.80
2023-02-28T21:21:14.943Z,4.80
2023-02-28T21:23:42.776Z,4.80
2023-02-28T21:26:12.413Z,4.80
2023-02-28T21:28:44.042Z,4.70
2023-02-28T21:31:14.672Z,4.80
2023-02-28T21:33:41.650Z,4.70
2023-02-28T21:36:12.172Z,4.70
2023-02-28T21:38:40.643Z,4.60
2023-02-28T21:41:08.347Z,4.60
2023-02-28T21:43:35.509Z,4.60
2023-02-28T21:46:08.145Z,4.60
2023-02-28T21:48:35.791Z,2.60
2023-02-28T21:51:06.599Z,4.60
2023-02-28T21:53:35.616Z,6.80
2023-02-28T21:56:08.179Z,4.60
2023-02-28T21:58:34.912Z,4.60
2023-02-28T22:01:12.991Z,4.60
2023-02-28T22:03:40.409Z,4.50
2023-02-28T22:06:19.569Z,4.50
2023-02-28T22:08:49.496Z,4.50
2023-02-28T22:11:17.135Z,4.40
2023-02-28T22:13:45.109Z,4.40
2023-02-28T22:16:14.355Z,4.40
2023-02-28T22:18:41.997Z,4.40
2023-02-28T22:21:10.507Z,4.30
2023-02-28T22:23:38.927Z,4.30
2023-02-28T22:26:08.050Z,4.20
2023-02-28T22:28:36.162Z,4.20
2023-02-28T22:31:13.979Z,4.20
2023-02-28T22:33:41.114Z,4.20
2023-02-28T22:36:08.933Z,4.20
2023-02-28T22:38:35.872Z,4.10
2023-02-28T22:41:04.437Z,4.10
2023-02-28T22:43:31.509Z,4.00
2023-02-28T22:46:03.655Z,4.00
2023-02-28T22:48:30.744Z,4.00
2023-02-28T22:51:06.779Z,3.90
2023-02-28T22:53:35.586Z,3.90
2023-02-28T22:56:02.939Z,3.90
2023-02-28T22:58:30.377Z,3.80
2023-02-28T23:01:04.787Z,3.80
2023-02-28T23:03:31.651Z,3.80
2023-02-28T23:05:58.433Z,3.80
2023-02-28T23:08:25.352Z,3.80
2023-02-28T23:10:52.820Z,3.80
2023-02-28T23:13:20.251Z,3.80
2023-02-28T23:15:47.797Z,3.80
2023-02-28T23:18:15.650Z,3.80
2023-02-28T23:20:42.470Z,3.80
2023-02-28T23:23:10.251Z,3.70
2023-02-28T23:25:40.570Z,3.70
2023-02-28T23:28:10.135Z,3.70
2023-02-28T23:30:38.638Z,3.70
2023-02-28T23:33:08.500Z,3.70
2023-02-28T23:35:35.337Z,3.70
2023-02-28T23:38:02.313Z,3.60
2023-02-28T23:40:29.046Z,3.60
2023-02-28T23:42:56.023Z,3.60
2023-02-28T23:45:22.874Z,3.70
2023-02-28T23:47:49.561Z,3.60
2023-02-28T23:50:16.626Z,3.60
2023-02-28T23:52:43.677Z,3.60
2023-02-28T23:55:10.854Z,3.60
2023-02-28T23:57:37.633Z,3.50
